sensor_id;sensor_type;location;lat;lon;timestamp;P1;durP1;ratioP1;P2;durP2;ratioP2
73872;SDS011;62206;47.568;9.364;2023-11-18T00:01:07;3.17;;;2.63;;
73872;SDS011;62206;47.568;9.364;2023-11-18T00:03:36;2.25;;;2.03;;
73872;SDS011;62206;47.568;9.364;2023-11-18T00:06:04;2.45;;;2.25;;
73872;SDS011;62206;47.568;9.364;2023-11-18T00:08:31;2.15;;;1.95;;
73872;SDS011;62206;47.568;9.364;2023-11-18T00:10:58;3.20;;;2.38;;
73872;SDS011;62206;47.568;9.364;2023-11-18T00:13:25;1.63;;;1.40;;
73872;SDS011;62206;47.568;9.364;2023-11-18T00:15:52;1.90;;;1.75;;
73872;SDS011;62206;47.568;9.364;2023-11-18T00:18:20;2.08;;;1.70;;
73872;SDS011;62206;47.568;9.364;2023-11-18T00:20:48;1.80;;;1.70;;
73872;SDS011;62206;47.568;9.364;2023-11-18T00:23:15;1.75;;;1.65;;
73872;SDS011;62206;47.568;9.364;2023-11-18T00:25:43;1.70;;;1.55;;
73872;SDS011;62206;47.568;9.364;2023-11-18T00:28:10;1.60;;;1.42;;
73872;SDS011;62206;47.568;9.364;2023-11-18T00:30:37;2.45;;;1.98;;
73872;SDS011;62206;47.568;9.364;2023-11-18T00:33:04;1.70;;;1.40;;
73872;SDS011;62206;47.568;9.364;2023-11-18T00:35:31;1.15;;;1.10;;
73872;SDS011;62206;47.568;9.364;2023-11-18T00:38:00;2.00;;;1.30;;
73872;SDS011;62206;47.568;9.364;2023-11-18T00:40:28;1.63;;;1.20;;
73872;SDS011;62206;47.568;9.364;2023-11-18T00:42:55;1.77;;;1.25;;
73872;SDS011;62206;47.568;9.364;2023-11-18T00:45:22;1.17;;;1.17;;
73872;SDS011;62206;47.568;9.364;2023-11-18T00:47:49;1.90;;;1.45;;
73872;SDS011;62206;47.568;9.364;2023-11-18T00:50:16;1.45;;;1.35;;
73872;SDS011;62206;47.568;9.364;2023-11-18T00:52:43;1.38;;;1.27;;
73872;SDS011;62206;47.568;9.364;2023-11-18T00:55:16;1.25;;;1.15;;
73872;SDS011;62206;47.568;9.364;2023-11-18T00:57:44;2.83;;;1.15;;
73872;SDS011;62206;47.568;9.364;2023-11-18T01:00:11;1.65;;;1.25;;
73872;SDS011;62206;47.568;9.364;2023-11-18T01:02:41;1.65;;;1.02;;
73872;SDS011;62206;47.568;9.364;2023-11-18T01:05:09;1.55;;;1.30;;
73872;SDS011;62206;47.568;9.364;2023-11-18T01:07:36;3.28;;;1.13;;
73872;SDS011;62206;47.568;9.364;2023-11-18T01:10:04;11.10;;;1.60;;
73872;SDS011;62206;47.568;9.364;2023-11-18T01:12:32;1.45;;;1.35;;
73872;SDS011;62206;47.568;9.364;2023-11-18T01:14:59;1.30;;;1.20;;
73872;SDS011;62206;47.568;9.364;2023-11-18T01:17:27;1.52;;;1.42;;
73872;SDS011;62206;47.568;9.364;2023-11-18T01:19:54;1.55;;;1.10;;
73872;SDS011;62206;47.568;9.364;2023-11-18T01:22:21;1.20;;;0.98;;
73872;SDS011;62206;47.568;9.364;2023-11-18T01:24:48;1.60;;;1.45;;
73872;SDS011;62206;47.568;9.364;2023-11-18T01:27:16;1.00;;;1.00;;
73872;SDS011;62206;47.568;9.364;2023-11-18T01:29:45;1.80;;;1.30;;
73872;SDS011;62206;47.568;9.364;2023-11-18T01:32:14;1.13;;;1.00;;
73872;SDS011;62206;47.568;9.364;2023-11-18T01:34:42;6.75;;;1.63;;
73872;SDS011;62206;47.568;9.364;2023-11-18T01:37:15;2.83;;;2.55;;
73872;SDS011;62206;47.568;9.364;2023-11-18T01:39:42;0.90;;;0.90;;
73872;SDS011;62206;47.568;9.364;2023-11-18T01:42:09;2.50;;;1.85;;
73872;SDS011;62206;47.568;9.364;2023-11-18T01:44:38;0.93;;;0.93;;
73872;SDS011;62206;47.568;9.364;2023-11-18T01:47:07;1.33;;;1.23;;
73872;SDS011;62206;47.568;9.364;2023-11-18T01:49:36;3.25;;;1.70;;
73872;SDS011;62206;47.568;9.364;2023-11-18T01:52:05;0.93;;;0.93;;
73872;SDS011;62206;47.568;9.364;2023-11-18T01:54:34;2.60;;;1.80;;
73872;SDS011;62206;47.568;9.364;2023-11-18T01:57:04;1.95;;;0.90;;
73872;SDS011;62206;47.568;9.364;2023-11-18T01:59:32;4.20;;;1.67;;
73872;SDS011;62206;47.568;9.364;2023-11-18T02:01:59;1.70;;;1.50;;
73872;SDS011;62206;47.568;9.364;2023-11-18T02:04:29;1.20;;;1.10;;
73872;SDS011;62206;47.568;9.364;2023-11-18T02:06:57;1.55;;;1.45;;
73872;SDS011;62206;47.568;9.364;2023-11-18T02:09:24;1.15;;;1.02;;
73872;SDS011;62206;47.568;9.364;2023-11-18T02:11:55;1.98;;;1.38;;
73872;SDS011;62206;47.568;9.364;2023-11-18T02:14:25;1.85;;;1.55;;
73872;SDS011;62206;47.568;9.364;2023-11-18T02:19:20;6.88;;;1.65;;
73872;SDS011;62206;47.568;9.364;2023-11-18T02:21:53;3.45;;;1.33;;
73872;SDS011;62206;47.568;9.364;2023-11-18T02:24:25;2.05;;;1.70;;
73872;SDS011;62206;47.568;9.364;2023-11-18T02:26:56;1.83;;;1.70;;
73872;SDS011;62206;47.568;9.364;2023-11-18T02:29:23;2.10;;;1.42;;
73872;SDS011;62206;47.568;9.364;2023-11-18T02:31:51;1.90;;;1.30;;
73872;SDS011;62206;47.568;9.364;2023-11-18T02:34:23;3.22;;;1.55;;
73872;SDS011;62206;47.568;9.364;2023-11-18T02:36:54;2.35;;;1.17;;
73872;SDS011;62206;47.568;9.364;2023-11-18T02:39:28;1.63;;;1.10;;
73872;SDS011;62206;47.568;9.364;2023-11-18T02:42:00;2.20;;;1.95;;
73872;SDS011;62206;47.568;9.364;2023-11-18T02:44:29;1.65;;;1.40;;
73872;SDS011;62206;47.568;9.364;2023-11-18T02:46:57;1.40;;;1.30;;
73872;SDS011;62206;47.568;9.364;2023-11-18T02:49:25;1.00;;;1.00;;
73872;SDS011;62206;47.568;9.364;2023-11-18T02:51:53;1.65;;;1.55;;
73872;SDS011;62206;47.568;9.364;2023-11-18T02:54:20;1.52;;;1.42;;
73872;SDS011;62206;47.568;9.364;2023-11-18T02:56:46;1.38;;;1.27;;
73872;SDS011;62206;47.568;9.364;2023-11-18T02:59:16;2.35;;;1.60;;
73872;SDS011;62206;47.568;9.364;2023-11-18T03:01:42;1.80;;;1.70;;
73872;SDS011;62206;47.568;9.364;2023-11-18T03:04:10;2.38;;;1.70;;
73872;SDS011;62206;47.568;9.364;2023-11-18T03:06:39;2.70;;;1.58;;
73872;SDS011;62206;47.568;9.364;2023-11-18T03:09:07;2.58;;;1.80;;
73872;SDS011;62206;47.568;9.364;2023-11-18T03:11:35;2.05;;;1.95;;
73872;SDS011;62206;47.568;9.364;2023-11-18T03:14:03;4.47;;;1.73;;
73872;SDS011;62206;47.568;9.364;2023-11-18T03:16:37;7.20;;;2.13;;
73872;SDS011;62206;47.568;9.364;2023-11-18T03:19:06;3.40;;;1.90;;
73872;SDS011;62206;47.568;9.364;2023-11-18T03:21:34;1.52;;;1.42;;
73872;SDS011;62206;47.568;9.364;2023-11-18T03:24:01;5.25;;;1.67;;
73872;SDS011;62206;47.568;9.364;2023-11-18T03:26:31;1.30;;;1.30;;
73872;SDS011;62206;47.568;9.364;2023-11-18T03:28:58;1.60;;;1.50;;
73872;SDS011;62206;47.568;9.364;2023-11-18T03:31:25;1.08;;;1.02;;
73872;SDS011;62206;47.568;9.364;2023-11-18T03:33:56;2.92;;;1.35;;
73872;SDS011;62206;47.568;9.364;2023-11-18T03:36:23;3.33;;;1.90;;
73872;SDS011;62206;47.568;9.364;2023-11-18T03:38:50;2.33;;;1.50;;
73872;SDS011;62206;47.568;9.364;2023-11-18T03:41:18;1.55;;;1.45;;
73872;SDS011;62206;47.568;9.364;2023-11-18T03:43:45;1.33;;;1.25;;
73872;SDS011;62206;47.568;9.364;2023-11-18T03:46:13;2.70;;;1.95;;
73872;SDS011;62206;47.568;9.364;2023-11-18T03:48:41;1.90;;;1.77;;
73872;SDS011;62206;47.568;9.364;2023-11-18T03:51:11;3.70;;;1.63;;
73872;SDS011;62206;47.568;9.364;2023-11-18T03:53:38;1.95;;;1.38;;
73872;SDS011;62206;47.568;9.364;2023-11-18T03:56:07;1.55;;;1.45;;
73872;SDS011;62206;47.568;9.364;2023-11-18T03:58:34;1.95;;;1.40;;
73872;SDS011;62206;47.568;9.364;2023-11-18T04:01:02;1.77;;;1.50;;
73872;SDS011;62206;47.568;9.364;2023-11-18T04:03:30;1.52;;;1.42;;
73872;SDS011;62206;47.568;9.364;2023-11-18T04:05:57;1.38;;;1.30;;
73872;SDS011;62206;47.568;9.364;2023-11-18T04:08:26;1.60;;;1.30;;
73872;SDS011;62206;47.568;9.364;2023-11-18T04:10:54;1.38;;;1.30;;
73872;SDS011;62206;47.568;9.364;2023-11-18T04:13:21;3.65;;;1.70;;
73872;SDS011;62206;47.568;9.364;2023-11-18T04:15:48;2.58;;;1.40;;
73872;SDS011;62206;47.568;9.364;2023-11-18T04:18:15;2.33;;;1.52;;
73872;SDS011;62206;47.568;9.364;2023-11-18T04:20:42;1.52;;;1.52;;
73872;SDS011;62206;47.568;9.364;2023-11-18T04:23:09;1.60;;;1.50;;
73872;SDS011;62206;47.568;9.364;2023-11-18T04:25:39;4.10;;;2.60;;
73872;SDS011;62206;47.568;9.364;2023-11-18T04:28:05;2.42;;;2.10;;
73872;SDS011;62206;47.568;9.364;2023-11-18T04:30:32;2.38;;;2.28;;
73872;SDS011;62206;47.568;9.364;2023-11-18T04:32:59;4.50;;;3.47;;
73872;SDS011;62206;47.568;9.364;2023-11-18T04:35:26;2.67;;;2.35;;
73872;SDS011;62206;47.568;9.364;2023-11-18T04:37:53;4.65;;;2.83;;
73872;SDS011;62206;47.568;9.364;2023-11-18T04:40:20;2.10;;;2.00;;
73872;SDS011;62206;47.568;9.364;2023-11-18T04:42:49;3.20;;;2.95;;
73872;SDS011;62206;47.568;9.364;2023-11-18T04:45:16;2.67;;;2.47;;
73872;SDS011;62206;47.568;9.364;2023-11-18T04:47:43;4.40;;;3.53;;
73872;SDS011;62206;47.568;9.364;2023-11-18T04:50:10;2.88;;;2.67;;
73872;SDS011;62206;47.568;9.364;2023-11-18T04:52:37;4.63;;;4.15;;
73872;SDS011;62206;47.568;9.364;2023-11-18T04:55:04;2.85;;;2.60;;
73872;SDS011;62206;47.568;9.364;2023-11-18T04:57:32;4.65;;;2.55;;
73872;SDS011;62206;47.568;9.364;2023-11-18T05:00:00;2.60;;;2.42;;
73872;SDS011;62206;47.568;9.364;2023-11-18T05:02:35;2.97;;;1.85;;
73872;SDS011;62206;47.568;9.364;2023-11-18T05:05:02;5.10;;;1.92;;
73872;SDS011;62206;47.568;9.364;2023-11-18T05:07:31;2.83;;;1.70;;
73872;SDS011;62206;47.568;9.364;2023-11-18T05:09:59;2.03;;;1.92;;
73872;SDS011;62206;47.568;9.364;2023-11-18T05:12:25;2.70;;;2.35;;
73872;SDS011;62206;47.568;9.364;2023-11-18T05:17:24;1.65;;;1.55;;
73872;SDS011;62206;47.568;9.364;2023-11-18T05:22:18;4.82;;;2.20;;
73872;SDS011;62206;47.568;9.364;2023-11-18T05:24:46;2.05;;;1.73;;
73872;SDS011;62206;47.568;9.364;2023-11-18T05:27:13;1.98;;;1.85;;
73872;SDS011;62206;47.568;9.364;2023-11-18T05:29:40;2.58;;;1.77;;
73872;SDS011;62206;47.568;9.364;2023-11-18T05:32:08;2.97;;;2.00;;
73872;SDS011;62206;47.568;9.364;2023-11-18T05:34:36;21.88;;;3.60;;
73872;SDS011;62206;47.568;9.364;2023-11-18T05:37:03;2.75;;;2.50;;
73872;SDS011;62206;47.568;9.364;2023-11-18T05:39:31;2.95;;;2.25;;
73872;SDS011;62206;47.568;9.364;2023-11-18T05:41:58;2.40;;;2.20;;
73872;SDS011;62206;47.568;9.364;2023-11-18T05:44:25;1.92;;;1.83;;
73872;SDS011;62206;47.568;9.364;2023-11-18T05:46:56;2.33;;;1.92;;
73872;SDS011;62206;47.568;9.364;2023-11-18T05:49:23;2.45;;;2.30;;
73872;SDS011;62206;47.568;9.364;2023-11-18T05:51:51;1.90;;;1.80;;
73872;SDS011;62206;47.568;9.364;2023-11-18T05:54:19;2.70;;;2.50;;
73872;SDS011;62206;47.568;9.364;2023-11-18T05:56:45;3.92;;;2.10;;
73872;SDS011;62206;47.568;9.364;2023-11-18T05:59:12;2.60;;;2.13;;
73872;SDS011;62206;47.568;9.364;2023-11-18T06:01:39;2.72;;;2.08;;
73872;SDS011;62206;47.568;9.364;2023-11-18T06:04:06;2.13;;;2.03;;
73872;SDS011;62206;47.568;9.364;2023-11-18T06:06:33;3.10;;;2.05;;
73872;SDS011;62206;47.568;9.364;2023-11-18T06:09:04;2.95;;;2.22;;
73872;SDS011;62206;47.568;9.364;2023-11-18T06:11:34;1.92;;;1.83;;
73872;SDS011;62206;47.568;9.364;2023-11-18T06:14:06;1.92;;;1.83;;
73872;SDS011;62206;47.568;9.364;2023-11-18T06:16:34;2.28;;;1.83;;
73872;SDS011;62206;47.568;9.364;2023-11-18T06:19:02;1.80;;;1.70;;
73872;SDS011;62206;47.568;9.364;2023-11-18T06:21:30;2.63;;;1.53;;
73872;SDS011;62206;47.568;9.364;2023-11-18T06:23:57;1.67;;;1.60;;
73872;SDS011;62206;47.568;9.364;2023-11-18T06:26:26;4.78;;;2.83;;
73872;SDS011;62206;47.568;9.364;2023-11-18T06:28:54;4.05;;;3.70;;
73872;SDS011;62206;47.568;9.364;2023-11-18T06:31:21;8.32;;;4.55;;
73872;SDS011;62206;47.568;9.364;2023-11-18T06:33:49;5.78;;;2.95;;
73872;SDS011;62206;47.568;9.364;2023-11-18T06:36:17;3.20;;;2.90;;
73872;SDS011;62206;47.568;9.364;2023-11-18T06:38:44;5.03;;;2.15;;
73872;SDS011;62206;47.568;9.364;2023-11-18T06:41:11;2.50;;;2.30;;
73872;SDS011;62206;47.568;9.364;2023-11-18T06:43:40;3.40;;;3.10;;
73872;SDS011;62206;47.568;9.364;2023-11-18T06:46:22;2.15;;;2.05;;
73872;SDS011;62206;47.568;9.364;2023-11-18T06:48:50;2.38;;;2.28;;
73872;SDS011;62206;47.568;9.364;2023-11-18T06:51:19;6.40;;;5.57;;
73872;SDS011;62206;47.568;9.364;2023-11-18T06:56:16;4.20;;;3.13;;
73872;SDS011;62206;47.568;9.364;2023-11-18T06:58:44;2.70;;;2.50;;
73872;SDS011;62206;47.568;9.364;2023-11-18T07:01:12;13.52;;;8.00;;
73872;SDS011;62206;47.568;9.364;2023-11-18T07:03:39;14.15;;;9.00;;
73872;SDS011;62206;47.568;9.364;2023-11-18T07:06:06;9.15;;;7.13;;
73872;SDS011;62206;47.568;9.364;2023-11-18T07:08:34;7.85;;;5.18;;
73872;SDS011;62206;47.568;9.364;2023-11-18T07:11:02;3.40;;;3.10;;
73872;SDS011;62206;47.568;9.364;2023-11-18T07:13:31;3.47;;;2.42;;
73872;SDS011;62206;47.568;9.364;2023-11-18T07:16:02;3.00;;;2.72;;
73872;SDS011;62206;47.568;9.364;2023-11-18T07:18:31;3.08;;;2.80;;
73872;SDS011;62206;47.568;9.364;2023-11-18T07:20:58;2.90;;;2.70;;
73872;SDS011;62206;47.568;9.364;2023-11-18T07:23:25;3.97;;;3.58;;
73872;SDS011;62206;47.568;9.364;2023-11-18T07:25:53;3.83;;;2.47;;
73872;SDS011;62206;47.568;9.364;2023-11-18T07:28:19;8.85;;;5.47;;
73872;SDS011;62206;47.568;9.364;2023-11-18T07:30:46;5.30;;;4.72;;
73872;SDS011;62206;47.568;9.364;2023-11-18T07:33:15;4.20;;;3.80;;
73872;SDS011;62206;47.568;9.364;2023-11-18T07:35:44;4.82;;;4.35;;
73872;SDS011;62206;47.568;9.364;2023-11-18T07:38:11;5.60;;;4.63;;
73872;SDS011;62206;47.568;9.364;2023-11-18T07:40:39;4.22;;;3.80;;
73872;SDS011;62206;47.568;9.364;2023-11-18T07:43:11;5.22;;;3.72;;
73872;SDS011;62206;47.568;9.364;2023-11-18T07:45:38;7.25;;;5.85;;
73872;SDS011;62206;47.568;9.364;2023-11-18T07:48:06;19.93;;;13.73;;
73872;SDS011;62206;47.568;9.364;2023-11-18T07:50:35;11.93;;;8.65;;
73872;SDS011;62206;47.568;9.364;2023-11-18T07:53:01;6.97;;;4.72;;
73872;SDS011;62206;47.568;9.364;2023-11-18T07:55:29;4.43;;;4.03;;
73872;SDS011;62206;47.568;9.364;2023-11-18T07:57:59;5.22;;;4.82;;
73872;SDS011;62206;47.568;9.364;2023-11-18T08:00:26;5.05;;;4.65;;
73872;SDS011;62206;47.568;9.364;2023-11-18T08:02:56;5.80;;;4.57;;
73872;SDS011;62206;47.568;9.364;2023-11-18T08:05:25;5.90;;;5.40;;
73872;SDS011;62206;47.568;9.364;2023-11-18T08:07:54;5.95;;;4.85;;
73872;SDS011;62206;47.568;9.364;2023-11-18T08:10:22;5.15;;;4.65;;
73872;SDS011;62206;47.568;9.364;2023-11-18T08:12:50;4.88;;;4.47;;
73872;SDS011;62206;47.568;9.364;2023-11-18T08:15:19;6.97;;;5.65;;
73872;SDS011;62206;47.568;9.364;2023-11-18T08:17:46;7.22;;;5.97;;
73872;SDS011;62206;47.568;9.364;2023-11-18T08:20:14;18.15;;;12.40;;
73872;SDS011;62206;47.568;9.364;2023-11-18T08:22:40;26.77;;;19.05;;
73872;SDS011;62206;47.568;9.364;2023-11-18T08:25:11;21.52;;;13.48;;
73872;SDS011;62206;47.568;9.364;2023-11-18T08:27:38;16.80;;;8.90;;
73872;SDS011;62206;47.568;9.364;2023-11-18T08:30:06;14.30;;;9.77;;
73872;SDS011;62206;47.568;9.364;2023-11-18T08:32:37;18.85;;;11.85;;
73872;SDS011;62206;47.568;9.364;2023-11-18T08:35:04;26.77;;;16.80;;
73872;SDS011;62206;47.568;9.364;2023-11-18T08:37:33;19.10;;;13.77;;
73872;SDS011;62206;47.568;9.364;2023-11-18T08:40:01;15.00;;;10.17;;
73872;SDS011;62206;47.568;9.364;2023-11-18T08:42:30;12.98;;;10.73;;
73872;SDS011;62206;47.568;9.364;2023-11-18T08:44:57;12.50;;;9.15;;
73872;SDS011;62206;47.568;9.364;2023-11-18T08:47:25;11.32;;;9.40;;
73872;SDS011;62206;47.568;9.364;2023-11-18T08:49:51;10.15;;;7.07;;
73872;SDS011;62206;47.568;9.364;2023-11-18T08:52:18;7.88;;;6.25;;
73872;SDS011;62206;47.568;9.364;2023-11-18T08:54:45;5.97;;;5.38;;
73872;SDS011;62206;47.568;9.364;2023-11-18T08:57:26;9.27;;;5.88;;
73872;SDS011;62206;47.568;9.364;2023-11-18T09:00:01;10.57;;;7.53;;
73872;SDS011;62206;47.568;9.364;2023-11-18T09:02:34;6.85;;;5.82;;
73872;SDS011;62206;47.568;9.364;2023-11-18T09:05:03;5.90;;;4.90;;
73872;SDS011;62206;47.568;9.364;2023-11-18T09:07:38;5.88;;;4.63;;
73872;SDS011;62206;47.568;9.364;2023-11-18T09:10:05;5.88;;;4.55;;
73872;SDS011;62206;47.568;9.364;2023-11-18T09:12:34;5.57;;;4.93;;
73872;SDS011;62206;47.568;9.364;2023-11-18T09:15:02;5.28;;;4.78;;
73872;SDS011;62206;47.568;9.364;2023-11-18T09:19:56;8.60;;;5.97;;
73872;SDS011;62206;47.568;9.364;2023-11-18T09:22:23;8.02;;;4.85;;
73872;SDS011;62206;47.568;9.364;2023-11-18T09:24:50;5.80;;;5.22;;
73872;SDS011;62206;47.568;9.364;2023-11-18T09:27:17;8.77;;;5.47;;
73872;SDS011;62206;47.568;9.364;2023-11-18T09:29:44;8.13;;;5.75;;
73872;SDS011;62206;47.568;9.364;2023-11-18T09:32:12;18.92;;;13.05;;
73872;SDS011;62206;47.568;9.364;2023-11-18T09:34:40;17.13;;;11.18;;
73872;SDS011;62206;47.568;9.364;2023-11-18T09:37:06;18.98;;;11.77;;
73872;SDS011;62206;47.568;9.364;2023-11-18T09:39:35;11.93;;;7.82;;
73872;SDS011;62206;47.568;9.364;2023-11-18T09:42:06;8.10;;;5.72;;
73872;SDS011;62206;47.568;9.364;2023-11-18T09:44:36;6.57;;;5.90;;
73872;SDS011;62206;47.568;9.364;2023-11-18T09:47:04;6.85;;;5.78;;
73872;SDS011;62206;47.568;9.364;2023-11-18T09:49:39;6.85;;;5.53;;
73872;SDS011;62206;47.568;9.364;2023-11-18T09:52:07;5.57;;;4.93;;
73872;SDS011;62206;47.568;9.364;2023-11-18T09:54:36;6.68;;;5.97;;
73872;SDS011;62206;47.568;9.364;2023-11-18T09:57:07;8.25;;;6.22;;
73872;SDS011;62206;47.568;9.364;2023-11-18T09:59:41;7.55;;;6.20;;
73872;SDS011;62206;47.568;9.364;2023-11-18T10:02:10;15.07;;;5.97;;
73872;SDS011;62206;47.568;9.364;2023-11-18T10:04:37;7.13;;;6.05;;
73872;SDS011;62206;47.568;9.364;2023-11-18T10:07:06;8.10;;;5.60;;
73872;SDS011;62206;47.568;9.364;2023-11-18T10:09:35;8.68;;;4.95;;
73872;SDS011;62206;47.568;9.364;2023-11-18T10:12:04;7.38;;;5.30;;
73872;SDS011;62206;47.568;9.364;2023-11-18T10:14:32;9.60;;;6.05;;
73872;SDS011;62206;47.568;9.364;2023-11-18T10:17:03;6.53;;;5.88;;
73872;SDS011;62206;47.568;9.364;2023-11-18T10:19:53;6.82;;;5.28;;
73872;SDS011;62206;47.568;9.364;2023-11-18T10:22:22;5.40;;;4.63;;
73872;SDS011;62206;47.568;9.364;2023-11-18T10:24:51;5.35;;;4.85;;
73872;SDS011;62206;47.568;9.364;2023-11-18T10:27:20;6.22;;;4.50;;
73872;SDS011;62206;47.568;9.364;2023-11-18T10:29:49;4.82;;;4.15;;
73872;SDS011;62206;47.568;9.364;2023-11-18T10:32:17;4.00;;;3.60;;
73872;SDS011;62206;47.568;9.364;2023-11-18T10:34:47;5.00;;;3.72;;
73872;SDS011;62206;47.568;9.364;2023-11-18T10:37:16;6.38;;;4.45;;
73872;SDS011;62206;47.568;9.364;2023-11-18T10:47:17;3.20;;;2.30;;
73872;SDS011;62206;47.568;9.364;2023-11-18T10:49:44;2.78;;;2.47;;
73872;SDS011;62206;47.568;9.364;2023-11-18T10:52:11;2.65;;;2.45;;
73872;SDS011;62206;47.568;9.364;2023-11-18T10:54:42;3.38;;;2.63;;
73872;SDS011;62206;47.568;9.364;2023-11-18T10:57:19;9.32;;;3.63;;
73872;SDS011;62206;47.568;9.364;2023-11-18T11:00:00;2.50;;;2.30;;
73872;SDS011;62206;47.568;9.364;2023-11-18T11:02:30;5.85;;;2.90;;
73872;SDS011;62206;47.568;9.364;2023-11-18T11:05:01;3.67;;;3.35;;
73872;SDS011;62206;47.568;9.364;2023-11-18T11:07:28;3.42;;;3.10;;
73872;SDS011;62206;47.568;9.364;2023-11-18T11:09:57;4.47;;;3.22;;
73872;SDS011;62206;47.568;9.364;2023-11-18T11:12:25;4.80;;;4.32;;
73872;SDS011;62206;47.568;9.364;2023-11-18T11:14:57;3.70;;;3.40;;
73872;SDS011;62206;47.568;9.364;2023-11-18T11:17:29;4.75;;;4.05;;
73872;SDS011;62206;47.568;9.364;2023-11-18T11:20:02;5.88;;;3.88;;
73872;SDS011;62206;47.568;9.364;2023-11-18T11:22:46;4.65;;;3.92;;
73872;SDS011;62206;47.568;9.364;2023-11-18T11:25:27;3.90;;;3.28;;
73872;SDS011;62206;47.568;9.364;2023-11-18T11:27:59;3.70;;;3.38;;
73872;SDS011;62206;47.568;9.364;2023-11-18T11:30:42;3.53;;;3.22;;
73872;SDS011;62206;47.568;9.364;2023-11-18T11:33:13;3.92;;;3.53;;
73872;SDS011;62206;47.568;9.364;2023-11-18T11:35:42;3.22;;;3.00;;
73872;SDS011;62206;47.568;9.364;2023-11-18T11:38:14;3.45;;;3.03;;
73872;SDS011;62206;47.568;9.364;2023-11-18T11:40:43;3.50;;;3.20;;
73872;SDS011;62206;47.568;9.364;2023-11-18T11:43:11;4.03;;;3.05;;
73872;SDS011;62206;47.568;9.364;2023-11-18T11:45:47;5.80;;;3.05;;
73872;SDS011;62206;47.568;9.364;2023-11-18T11:48:17;3.63;;;3.30;;
73872;SDS011;62206;47.568;9.364;2023-11-18T11:50:57;3.20;;;2.97;;
73872;SDS011;62206;47.568;9.364;2023-11-18T11:53:30;3.90;;;3.40;;
73872;SDS011;62206;47.568;9.364;2023-11-18T11:56:03;3.88;;;3.47;;
73872;SDS011;62206;47.568;9.364;2023-11-18T11:58:32;3.97;;;3.67;;
73872;SDS011;62206;47.568;9.364;2023-11-18T12:01:15;3.97;;;3.45;;
73872;SDS011;62206;47.568;9.364;2023-11-18T12:03:48;3.28;;;2.92;;
73872;SDS011;62206;47.568;9.364;2023-11-18T12:06:19;3.38;;;3.15;;
73872;SDS011;62206;47.568;9.364;2023-11-18T12:08:49;3.75;;;3.33;;
73872;SDS011;62206;47.568;9.364;2023-11-18T12:11:19;3.08;;;2.88;;
73872;SDS011;62206;47.568;9.364;2023-11-18T12:14:03;3.50;;;3.10;;
73872;SDS011;62206;47.568;9.364;2023-11-18T12:19:33;4.13;;;2.65;;
73872;SDS011;62206;47.568;9.364;2023-11-18T12:22:12;2.58;;;2.40;;
73872;SDS011;62206;47.568;9.364;2023-11-18T12:24:45;4.30;;;3.35;;
73872;SDS011;62206;47.568;9.364;2023-11-18T12:33:09;3.67;;;3.28;;
73872;SDS011;62206;47.568;9.364;2023-11-18T12:35:40;4.07;;;2.77;;
73872;SDS011;62206;47.568;9.364;2023-11-18T12:38:23;2.90;;;2.70;;
73872;SDS011;62206;47.568;9.364;2023-11-18T12:41:00;2.70;;;2.50;;
73872;SDS011;62206;47.568;9.364;2023-11-18T12:46:41;2.42;;;2.22;;
73872;SDS011;62206;47.568;9.364;2023-11-18T12:49:18;2.38;;;1.98;;
73872;SDS011;62206;47.568;9.364;2023-11-18T12:51:50;2.60;;;2.40;;
73872;SDS011;62206;47.568;9.364;2023-11-18T12:54:17;2.08;;;1.98;;
73872;SDS011;62206;47.568;9.364;2023-11-18T12:56:44;2.85;;;2.65;;
73872;SDS011;62206;47.568;9.364;2023-11-18T12:59:16;3.10;;;2.78;;
73872;SDS011;62206;47.568;9.364;2023-11-18T13:01:44;6.05;;;3.15;;
73872;SDS011;62206;47.568;9.364;2023-11-18T13:04:17;3.55;;;2.80;;
73872;SDS011;62206;47.568;9.364;2023-11-18T13:06:46;3.47;;;2.55;;
73872;SDS011;62206;47.568;9.364;2023-11-18T13:09:14;2.65;;;2.45;;
73872;SDS011;62206;47.568;9.364;2023-11-18T13:11:54;3.67;;;2.58;;
73872;SDS011;62206;47.568;9.364;2023-11-18T13:14:24;2.53;;;2.33;;
73872;SDS011;62206;47.568;9.364;2023-11-18T13:16:52;4.80;;;3.33;;
73872;SDS011;62206;47.568;9.364;2023-11-18T13:19:25;3.08;;;2.78;;
73872;SDS011;62206;47.568;9.364;2023-11-18T13:21:57;4.78;;;3.65;;
73872;SDS011;62206;47.568;9.364;2023-11-18T13:24:25;5.53;;;2.67;;
73872;SDS011;62206;47.568;9.364;2023-11-18T13:26:53;5.40;;;3.35;;
73872;SDS011;62206;47.568;9.364;2023-11-18T13:29:20;3.63;;;3.33;;
73872;SDS011;62206;47.568;9.364;2023-11-18T13:31:50;3.33;;;2.92;;
73872;SDS011;62206;47.568;9.364;2023-11-18T13:34:18;5.10;;;3.55;;
73872;SDS011;62206;47.568;9.364;2023-11-18T13:36:45;4.18;;;3.55;;
73872;SDS011;62206;47.568;9.364;2023-11-18T13:39:15;3.25;;;3.00;;
73872;SDS011;62206;47.568;9.364;2023-11-18T13:41:43;3.33;;;3.03;;
73872;SDS011;62206;47.568;9.364;2023-11-18T13:44:11;3.55;;;3.20;;
73872;SDS011;62206;47.568;9.364;2023-11-18T13:46:39;2.70;;;2.50;;
73872;SDS011;62206;47.568;9.364;2023-11-18T13:49:08;7.13;;;5.00;;
73872;SDS011;62206;47.568;9.364;2023-11-18T13:51:34;2.77;;;2.57;;
73872;SDS011;62206;47.568;9.364;2023-11-18T13:54:02;3.47;;;3.10;;
73872;SDS011;62206;47.568;9.364;2023-11-18T13:56:30;2.95;;;2.65;;
73872;SDS011;62206;47.568;9.364;2023-11-18T13:58:57;5.10;;;3.47;;
73872;SDS011;62206;47.568;9.364;2023-11-18T14:01:25;3.60;;;2.80;;
73872;SDS011;62206;47.568;9.364;2023-11-18T14:03:53;6.95;;;3.33;;
73872;SDS011;62206;47.568;9.364;2023-11-18T14:06:22;6.53;;;3.78;;
73872;SDS011;62206;47.568;9.364;2023-11-18T14:08:53;4.88;;;2.60;;
73872;SDS011;62206;47.568;9.364;2023-11-18T14:11:20;3.45;;;2.17;;
73872;SDS011;62206;47.568;9.364;2023-11-18T14:13:46;3.33;;;3.03;;
73872;SDS011;62206;47.568;9.364;2023-11-18T14:16:17;3.58;;;2.83;;
73872;SDS011;62206;47.568;9.364;2023-11-18T14:18:46;3.03;;;2.55;;
73872;SDS011;62206;47.568;9.364;2023-11-18T14:21:13;2.50;;;2.30;;
73872;SDS011;62206;47.568;9.364;2023-11-18T14:23:42;2.63;;;2.30;;
73872;SDS011;62206;47.568;9.364;2023-11-18T14:26:08;4.32;;;2.90;;
73872;SDS011;62206;47.568;9.364;2023-11-18T14:28:35;3.70;;;2.95;;
73872;SDS011;62206;47.568;9.364;2023-11-18T14:31:03;2.85;;;2.65;;
73872;SDS011;62206;47.568;9.364;2023-11-18T14:33:32;4.45;;;2.88;;
73872;SDS011;62206;47.568;9.364;2023-11-18T14:35:59;3.70;;;2.90;;
73872;SDS011;62206;47.568;9.364;2023-11-18T14:38:28;4.33;;;3.43;;
73872;SDS011;62206;47.568;9.364;2023-11-18T14:40:57;3.05;;;2.85;;
73872;SDS011;62206;47.568;9.364;2023-11-18T14:43:23;3.90;;;3.60;;
73872;SDS011;62206;47.568;9.364;2023-11-18T14:45:51;4.22;;;3.60;;
73872;SDS011;62206;47.568;9.364;2023-11-18T14:48:17;5.45;;;3.80;;
73872;SDS011;62206;47.568;9.364;2023-11-18T14:50:44;4.75;;;4.38;;
73872;SDS011;62206;47.568;9.364;2023-11-18T14:53:11;5.72;;;4.13;;
73872;SDS011;62206;47.568;9.364;2023-11-18T14:55:38;5.35;;;4.18;;
73872;SDS011;62206;47.568;9.364;2023-11-18T14:58:07;7.35;;;5.10;;
73872;SDS011;62206;47.568;9.364;2023-11-18T15:00:34;6.10;;;4.90;;
73872;SDS011;62206;47.568;9.364;2023-11-18T15:03:01;5.85;;;4.85;;
73872;SDS011;62206;47.568;9.364;2023-11-18T15:05:28;7.32;;;5.18;;
73872;SDS011;62206;47.568;9.364;2023-11-18T15:07:57;7.22;;;4.85;;
73872;SDS011;62206;47.568;9.364;2023-11-18T15:10:26;6.95;;;5.10;;
73872;SDS011;62206;47.568;9.364;2023-11-18T15:12:54;5.13;;;4.60;;
73872;SDS011;62206;47.568;9.364;2023-11-18T15:15:25;5.40;;;4.90;;
73872;SDS011;62206;47.568;9.364;2023-11-18T15:17:57;5.32;;;4.85;;
73872;SDS011;62206;47.568;9.364;2023-11-18T15:20:25;4.67;;;4.27;;
73872;SDS011;62206;47.568;9.364;2023-11-18T15:22:51;6.15;;;4.65;;
73872;SDS011;62206;47.568;9.364;2023-11-18T15:25:19;4.50;;;4.07;;
73872;SDS011;62206;47.568;9.364;2023-11-18T15:27:48;5.82;;;4.38;;